Time;durP1;ratioP1;P1;durP2;ratioP2;P2;SDS_P1;SDS_P2;PMS_P1;PMS_P2;Temp;Humidity;BMP_temperature;BMP_pressure;BME280_temperature;BME280_humidity;BME280_pressure;Samples;Min_cycle;Max_cycle;Signal;HPM_P1;HPM_P2
2022/10/09 00:00:26;;;;;;;16.00;4.43;;;;;;;5.49;100.00;96698.53;1026665;28;20019;-69
2022/10/09 00:01:11;;;;;;;12.35;4.68;;;;;;;5.52;100.00;96699.94;1018560;29;20111;-69
2022/10/09 00:01:41;;;;;;;6.00;3.85;;;;;;;5.50;100.00;96701.94;1020761;29;20886;-69
2022/10/09 00:02:12;;;;;;;7.85;4.38;;;;;;;5.40;100.00;96691.97;1022486;29;20385;-69
2022/10/09 00:02:42;;;;;;;10.80;5.07;;;;;;;5.48;100.00;96712.56;1022883;28;20035;-68
2022/10/09 00:03:13;;;;;;;9.00;3.90;;;;;;;5.50;100.00;96701.94;1026517;28;20518;-68
2022/10/09 00:03:45;;;;;;;8.43;3.65;;;;;;;5.49;100.00;96706.34;1030409;28;20030;-68
2022/10/09 00:04:15;;;;;;;6.97;3.97;;;;;;;5.51;100.00;96703.53;1026786;28;20027;-69
2022/10/09 00:04:46;;;;;;;8.07;3.75;;;;;;;5.50;100.00;96701.94;1026455;28;20274;-70
2022/10/09 00:05:16;;;;;;;6.40;3.90;;;;;;;5.50;100.00;96701.94;1028591;28;20070;-68
2022/10/09 00:05:47;;;;;;;8.52;4.22;;;;;;;5.50;100.00;96707.13;1029684;28;20125;-70
2022/10/09 00:06:22;;;;;;;6.65;3.55;;;;;;;5.51;100.00;96709.53;1030444;28;20449;-69
2022/10/09 00:06:53;;;;;;;7.85;3.78;;;;;;;5.52;100.00;96705.13;1030398;28;20030;-69
2022/10/09 00:07:23;;;;;;;9.60;3.40;;;;;;;5.50;100.00;96704.53;1030262;28;20269;-69
2022/10/09 00:07:53;;;;;;;6.07;3.83;;;;;;;5.47;100.00;96703.16;1030184;28;20034;-70
2022/10/09 00:08:24;;;;;;;5.85;3.08;;;;;;;5.32;100.00;96681.78;1030411;28;20034;-69
2022/10/09 00:08:55;;;;;;;9.13;3.70;;;;;;;5.47;100.00;96697.16;1030320;28;20034;-67
2022/10/09 00:09:26;;;;;;;14.32;3.60;;;;;;;5.44;100.00;96703.56;1026463;28;20049;-69
2022/10/09 00:09:59;;;;;;;10.30;3.03;;;;;;;5.46;100.00;96706.75;1026323;28;20027;-69
2022/10/09 00:10:29;;;;;;;10.55;3.97;;;;;;;5.40;100.00;96691.97;1026358;28;20019;-69
2022/10/09 00:11:04;;;;;;;5.57;3.20;;;;;;;5.39;100.00;96685.16;1019379;28;20278;-69
2022/10/09 00:11:35;;;;;;;5.95;3.25;;;;;;;5.43;100.00;96700.16;1022377;29;20117;-68
2022/10/09 00:12:05;;;;;;;8.05;3.58;;;;;;;5.46;100.00;96703.34;1024766;28;20756;-69
2022/10/09 00:12:36;;;;;;;9.23;3.40;;;;;;;5.47;100.00;96705.75;1031201;28;20031;-69
2022/10/09 00:13:06;;;;;;;5.57;3.30;;;;;;;5.46;100.00;96696.34;1034405;28;20026;-69
2022/10/09 00:13:37;;;;;;;12.02;3.13;;;;;;;5.46;100.00;96696.34;1034482;28;20117;-69
2022/10/09 00:14:07;;;;;;;8.95;3.47;;;;;;;5.46;100.00;96696.34;1038290;28;20044;-69
2022/10/09 00:14:38;;;;;;;13.20;3.92;;;;;;;5.43;100.00;96692.34;1038476;28;20021;-69
2022/10/09 00:15:09;;;;;;;8.52;3.30;;;;;;;5.40;100.00;96691.97;1038657;28;20026;-70
2022/10/09 00:15:40;;;;;;;10.85;3.33;;;;;;;5.40;100.00;96695.38;1033433;28;20647;-69
2022/10/09 00:16:12;;;;;;;5.22;2.85;;;;;;;5.41;100.00;96701.38;1022059;28;20266;-69
2022/10/09 00:16:42;;;;;;;9.75;2.67;;;;;;;5.43;100.00;96697.56;1022736;29;20306;-69
2022/10/09 00:17:13;;;;;;;5.93;2.90;;;;;;;5.42;100.00;96695.94;1022788;28;20802;-69
2022/10/09 00:17:43;;;;;;;12.07;3.60;;;;;;;5.42;100.00;96698.56;1027201;28;20031;-69
2022/10/09 00:18:15;;;;;;;6.10;3.30;;;;;;;5.42;100.00;96690.75;1030096;28;20490;-69
2022/10/09 00:18:46;;;;;;;8.95;3.20;;;;;;;5.40;100.00;96692.78;1026377;28;20023;-69
2022/10/09 00:19:16;;;;;;;9.85;3.40;;;;;;;5.46;100.00;96695.53;1030444;28;20277;-70
2022/10/09 00:19:47;;;;;;;6.55;3.08;;;;;;;5.47;100.00;96694.56;1026509;28;20030;-70
2022/10/09 00:20:17;;;;;;;3.97;2.72;;;;;;;5.43;100.00;96686.31;1026596;28;20031;-67
2022/10/09 00:20:48;;;;;;;10.65;2.75;;;;;;;5.48;100.00;96696.16;1023217;29;20182;-69
2022/10/09 00:21:20;;;;;;;6.03;3.25;;;;;;;5.49;100.00;96695.13;1019347;28;20032;-70
2022/10/09 00:21:51;;;;;;;6.90;2.80;;;;;;;5.47;100.00;96692.75;1027340;28;20026;-70
2022/10/09 00:22:24;;;;;;;5.20;2.90;;;;;;;5.49;100.00;96689.91;1034520;28;20264;-70
2022/10/09 00:22:55;;;;;;;9.25;3.80;;;;;;;5.48;100.00;96688.34;1039363;28;20267;-70
2022/10/09 00:23:25;;;;;;;9.98;3.05;;;;;;;5.46;100.00;96685.13;1035429;28;20061;-69
2022/10/09 00:23:57;;;;;;;5.40;3.10;;;;;;;5.48;100.00;96690.94;1026621;28;20090;-70
2022/10/09 00:24:28;;;;;;;5.28;2.83;;;;;;;5.50;100.00;96691.50;1020802;29;20047;-69
2022/10/09 00:24:59;;;;;;;6.13;3.05;;;;;;;5.54;100.00;96690.13;1019640;29;20748;-70
2022/10/09 00:25:29;;;;;;;7.72;2.72;;;;;;;5.54;100.00;96693.50;1024000;28;20031;-68
2022/10/09 00:26:00;;;;;;;5.32;2.88;;;;;;;5.52;100.00;96694.72;1035191;28;20037;-69
2022/10/09 00:26:30;;;;;;;6.47;3.17;;;;;;;5.52;100.00;96692.91;1031102;28;20041;-70
2022/10/09 00:27:01;;;;;;;7.18;2.90;;;;;;;5.52;100.00;96686.91;1027256;28;20026;-70
2022/10/09 00:27:31;;;;;;;5.68;3.15;;;;;;;5.54;100.00;96692.72;1027157;28;20093;-70
2022/10/09 00:28:03;;;;;;;7.15;3.30;;;;;;;5.55;100.00;96694.31;1027407;28;20031;-70
2022/10/09 00:28:33;;;;;;;8.77;2.88;;;;;;;5.54;100.00;96687.50;1027670;28;20038;-70
2022/10/09 00:29:04;;;;;;;6.60;3.20;;;;;;;5.55;100.00;96694.31;1031089;28;20269;-70
2022/10/09 00:29:34;;;;;;;9.02;3.38;;;;;;;5.55;100.00;96689.09;1031108;28;20074;-69
2022/10/09 00:30:05;;;;;;;8.77;3.45;;;;;;;5.49;100.00;96685.50;1027570;28;20041;-69
2022/10/09 00:30:38;;;;;;;4.68;2.75;;;;;;;5.50;100.00;96686.31;1031575;28;20034;-70
2022/10/09 00:31:09;;;;;;;10.32;3.53;;;;;;;5.43;100.00;96678.53;1030809;28;20273;-71
2022/10/09 00:31:39;;;;;;;9.32;3.95;;;;;;;5.49;100.00;96685.50;1023440;29;20666;-70
2022/10/09 00:32:18;;;;;;;8.63;3.25;;;;;;;5.49;100.00;96685.50;1023723;28;20274;-70
2022/10/09 00:32:48;;;;;;;6.25;2.72;;;;;;;5.48;100.00;96683.91;1020613;29;20032;-70
2022/10/09 00:33:19;;;;;;;10.32;4.18;;;;;;;5.47;100.00;96684.16;1027943;28;20976;-70
2022/10/09 00:33:50;;;;;;;9.35;3.25;;;;;;;5.47;100.00;96684.94;1031170;28;20785;-70
2022/10/09 00:34:20;;;;;;;6.47;3.28;;;;;;;5.47;100.00;96686.75;1023113;29;20035;-70
2022/10/09 00:34:51;;;;;;;5.43;3.00;;;;;;;5.46;100.00;96685.13;1023086;29;20038;-70
2022/10/09 00:35:21;;;;;;;5.30;2.90;;;;;;;5.47;100.00;96686.75;1020686;28;20039;-69
2022/10/09 00:35:52;;;;;;;7.30;3.45;;;;;;;5.47;100.00;96682.34;1027078;28;20640;-69
2022/10/09 00:36:23;;;;;;;4.75;2.75;;;;;;;5.48;100.00;96685.72;1035291;28;20068;-69
2022/10/09 00:36:54;;;;;;;6.55;3.58;;;;;;;5.46;100.00;96682.53;1031212;28;20042;-70
2022/10/09 00:37:24;;;;;;;6.85;3.60;;;;;;;5.44;100.00;96680.94;1027652;28;20810;-70
2022/10/09 00:37:55;;;;;;;5.32;3.15;;;;;;;5.41;100.00;96683.94;1027146;28;20443;-69
2022/10/09 00:38:25;;;;;;;3.83;2.83;;;;;;;5.41;100.00;96681.34;1031393;28;20038;-70
2022/10/09 00:38:56;;;;;;;11.00;3.55;;;;;;;5.42;100.00;96682.13;1030917;28;20034;-70
2022/10/09 00:39:27;;;;;;;9.70;3.38;;;;;;;5.40;100.00;96687.56;1035233;28;20029;-71
2022/10/09 00:39:57;;;;;;;7.82;3.22;;;;;;;5.40;100.00;96684.16;1035154;28;20030;-70
2022/10/09 00:40:30;;;;;;;5.18;3.53;;;;;;;5.37;100.00;96682.78;1031399;28;20022;-71
2022/10/09 00:41:01;;;;;;;8.18;4.28;;;;;;;5.37;100.00;96681.97;1034874;28;20045;-70
2022/10/09 00:41:33;;;;;;;6.43;2.78;;;;;;;5.35;100.00;96689.97;1027096;28;20276;-70
2022/10/09 00:42:03;;;;;;;11.02;3.80;;;;;;;5.33;100.00;96683.38;1027126;28;20051;-70
2022/10/09 00:42:34;;;;;;;8.55;2.95;;;;;;;5.30;100.00;96687.19;1023019;29;20302;-70
2022/10/09 00:43:15;;;;;;;5.03;3.28;;;;;;;5.28;100.00;96681.38;1023683;28;20047;-69
2022/10/09 00:43:48;;;;;;;11.15;2.88;;;;;;;5.26;100.00;96683.38;1027307;28;20458;-69
2022/10/09 00:44:46;;;;;;;7.22;2.50;;;;;;;5.26;100.00;96680.78;1026965;28;20285;-69
2022/10/09 00:45:18;;;;;;;4.13;2.17;;;;;;;5.24;100.00;96685.41;1031062;28;20261;-70
2022/10/09 00:45:51;;;;;;;4.63;2.60;;;;;;;5.26;100.00;96680.78;1030594;28;20357;-69
2022/10/09 00:46:38;;;;;;;7.22;2.80;;;;;;;5.25;100.00;96679.19;1023315;29;20283;-69
2022/10/09 00:47:12;;;;;;;7.78;3.03;;;;;;;5.24;100.00;96680.22;1023005;29;20733;-69
2022/10/09 00:47:49;;;;;;;5.78;2.60;;;;;;;5.22;100.00;96674.41;1023100;29;20283;-70
2022/10/09 00:48:20;;;;;;;3.97;2.80;;;;;;;5.23;100.00;96680.41;1019242;29;20271;-70
2022/10/09 00:49:13;;;;;;;4.57;2.85;;;;;;;5.24;100.00;96677.59;1019235;29;20267;-70
2022/10/09 00:49:44;;;;;;;7.10;3.05;;;;;;;5.20;100.00;96676.44;1019223;29;20031;-70
2022/10/09 00:50:20;;;;;;;8.30;3.25;;;;;;;5.22;100.00;96679.59;1026666;28;20275;-70
2022/10/09 00:50:55;;;;;;;3.72;2.63;;;;;;;5.19;100.00;96674.81;1027115;28;20059;-71
2022/10/09 00:51:27;;;;;;;8.15;3.13;;;;;;;5.17;100.00;96679.44;1023010;29;20346;-70
2022/10/09 00:51:58;;;;;;;7.28;2.97;;;;;;;5.16;100.00;96673.44;1023281;29;20342;-70
2022/10/09 00:52:29;;;;;;;8.60;3.17;;;;;;;5.20;100.00;96681.63;1011395;29;20284;-70
2022/10/09 00:53:00;;;;;;;7.95;2.97;;;;;;;5.15;100.00;96676.22;1022082;29;20271;-70
2022/10/09 00:53:36;;;;;;;7.60;3.22;;;;;;;5.21;100.00;96685.81;1023216;29;20035;-71
2022/10/09 00:54:07;;;;;;;7.22;2.90;;;;;;;5.22;100.00;96679.59;1025127;28;20518;-70
2022/10/09 00:54:38;;;;;;;4.78;2.83;;;;;;;5.23;100.00;96681.22;1033706;28;20280;-71
2022/10/09 00:55:09;;;;;;;4.32;2.70;;;;;;;5.24;100.00;96679.41;1027050;28;20270;-70
2022/10/09 00:55:39;;;;;;;9.10;2.85;;;;;;;5.22;100.00;96674.41;1022162;29;20436;-70
2022/10/09 00:56:12;;;;;;;7.88;3.15;;;;;;;5.25;100.00;96679.19;1027012;28;20018;-69
2022/10/09 00:56:43;;;;;;;7.25;3.53;;;;;;;5.24;100.00;96675.00;1027903;28;20078;-70
2022/10/09 00:57:13;;;;;;;5.50;2.92;;;;;;;5.23;100.00;96673.41;1035159;28;20358;-69
2022/10/09 00:57:44;;;;;;;4.35;3.08;;;;;;;5.22;100.00;96669.19;1033140;28;20025;-69
2022/10/09 00:58:14;;;;;;;12.30;3.30;;;;;;;5.19;100.00;96669.59;1030905;28;20042;-69
2022/10/09 00:58:46;;;;;;;5.40;2.97;;;;;;;5.20;100.00;96671.22;1023464;29;20063;-70
2022/10/09 00:59:20;;;;;;;8.60;4.20;;;;;;;5.22;100.00;96677.00;1027022;28;20030;-69
2022/10/09 00:59:53;;;;;;;7.10;3.45;;;;;;;5.22;100.00;96671.81;1030857;28;20301;-69
2022/10/09 01:00:25;;;;;;;6.50;3.63;;;;;;;5.16;100.00;96660.44;1023225;29;20798;-70
2022/10/09 01:01:01;;;;;;;4.72;3.10;;;;;;;5.19;100.00;96673.00;1020483;29;20038;-69
2022/10/09 01:01:31;;;;;;;5.13;2.75;;;;;;;5.21;100.00;96670.22;1028199;28;20270;-70
2022/10/09 01:02:02;;;;;;;6.45;2.97;;;;;;;5.21;100.00;96670.22;1031502;28;20277;-70
2022/10/09 01:02:32;;;;;;;4.72;3.00;;;;;;;5.20;100.00;96669.41;1035184;28;20037;-68
2022/10/09 01:03:09;;;;;;;4.95;3.60;;;;;;;5.21;100.00;96667.59;1035441;28;20052;-69
2022/10/09 01:03:39;;;;;;;6.68;2.60;;;;;;;5.19;100.00;96669.59;1030720;28;20026;-70
2022/10/09 01:04:10;;;;;;;9.45;2.67;;;;;;;5.20;100.00;96669.41;1031306;28;20265;-70
2022/10/09 01:04:40;;;;;;;6.28;2.97;;;;;;;5.23;100.00;96667.38;1022197;29;20054;-70
2022/10/09 01:05:11;;;;;;;4.38;2.63;;;;;;;5.19;100.00;96654.78;1020603;28;20031;-69
2022/10/09 01:05:56;;;;;;;6.22;3.10;;;;;;;5.23;100.00;96657.81;1026418;28;20042;-69
2022/10/09 01:06:46;;;;;;;7.25;2.90;;;;;;;5.21;100.00;96662.41;1029249;28;20031;-70
2022/10/09 01:08:00;;;;;;;8.50;3.55;;;;;;;5.25;100.00;96654.97;1026945;28;20274;-70
2022/10/09 01:08:35;;;;;;;4.63;2.63;;;;;;;5.23;100.00;96660.41;1027121;28;20070;-69
2022/10/09 01:09:13;;;;;;;2.92;1.88;;;;;;;5.22;100.00;96655.41;1029311;28;20622;-69
2022/10/09 01:09:49;;;;;;;13.52;3.85;;;;;;;5.22;100.00;96658.00;1031312;28;20284;-70
2022/10/09 01:10:28;;;;;;;5.13;3.05;;;;;;;5.24;100.00;96649.00;1026279;28;20420;-70
2022/10/09 01:11:24;;;;;;;4.82;2.55;;;;;;;5.29;100.00;96651.75;1023225;29;20275;-69
2022/10/09 01:12:03;;;;;;;7.40;3.08;;;;;;;5.27;100.00;96656.38;1027338;28;20266;-70
2022/10/09 01:12:52;;;;;;;9.10;3.22;;;;;;;5.25;100.00;96653.19;1031283;28;20266;-71
2022/10/09 01:13:56;;;;;;;3.80;2.33;;;;;;;5.25;100.00;96650.56;1031055;28;20273;-70
2022/10/09 01:14:28;;;;;;;4.82;2.50;;;;;;;5.23;100.00;96644.81;1026528;28;20270;-71
2022/10/09 01:15:04;;;;;;;4.95;2.70;;;;;;;5.27;100.00;96647.78;1027666;28;20290;-70
2022/10/09 01:15:40;;;;;;;4.38;2.17;;;;;;;5.24;100.00;96643.00;1030111;28;20700;-69
2022/10/09 01:16:10;;;;;;;5.55;3.38;;;;;;;5.30;100.00;96649.94;1026935;28;20262;-71
2022/10/09 01:16:47;;;;;;;4.45;2.78;;;;;;;5.27;100.00;96645.97;1028623;28;20653;-70
2022/10/09 01:17:28;;;;;;;6.35;5.05;;;;;;;5.27;100.00;96645.97;1029213;28;20556;-69
2022/10/09 01:18:25;;;;;;;4.78;2.60;;;;;;;5.29;100.00;96643.94;1031835;28;20274;-71
2022/10/09 01:19:31;;;;;;;6.10;2.70;;;;;;;5.30;100.00;96640.38;1030280;28;20034;-70
2022/10/09 01:20:10;;;;;;;9.13;3.10;;;;;;;5.29;100.00;96643.94;1030785;28;20325;-69
2022/10/09 01:20:47;;;;;;;4.72;2.83;;;;;;;5.32;100.00;96648.75;1028573;28;20745;-69
2022/10/09 01:21:44;;;;;;;5.22;2.80;;;;;;;5.37;100.00;96645.53;1023132;29;20354;-69
2022/10/09 01:22:36;;;;;;;4.80;2.90;;;;;;;5.40;100.00;96645.94;1018421;28;20327;-69
2022/10/09 01:23:24;;;;;;;2.80;1.98;;;;;;;5.39;100.00;96638.31;1030023;28;20243;-69
2022/10/09 01:24:20;;;;;;;5.55;2.40;;;;;;;5.41;100.00;96637.09;1034721;28;20835;-70
2022/10/09 01:24:55;;;;;;;8.52;2.78;;;;;;;5.41;100.00;96642.31;1035412;28;20272;-69
2022/10/09 01:25:54;;;;;;;5.68;3.33;;;;;;;5.36;100.00;96631.69;1030218;28;20266;-69
2022/10/09 01:26:29;;;;;;;9.10;2.42;;;;;;;5.37;100.00;96641.13;1031516;28;20257;-70
2022/10/09 01:27:02;;;;;;;4.60;2.80;;;;;;;5.40;100.00;96642.53;1031450;28;20360;-69
2022/10/09 01:27:33;;;;;;;7.68;3.10;;;;;;;5.36;100.00;96633.50;1031612;28;20261;-68
2022/10/09 01:28:04;;;;;;;7.07;2.75;;;;;;;5.37;100.00;96646.34;1027155;28;20250;-70
2022/10/09 01:28:34;;;;;;;10.43;3.17;;;;;;;5.31;100.00;96626.34;1019182;29;20024;-70
2022/10/09 01:29:05;;;;;;;7.53;2.97;;;;;;;5.35;100.00;96643.13;1017536;29;20020;-70
2022/10/09 01:29:53;;;;;;;6.72;3.28;;;;;;;5.36;100.00;96642.13;1015307;29;20084;-69
2022/10/09 01:30:24;;;;;;;10.20;3.25;;;;;;;5.34;100.00;96643.34;1029822;28;21027;-70
2022/10/09 01:30:59;;;;;;;7.82;2.70;;;;;;;5.33;100.00;96644.34;1038266;28;20327;-70
2022/10/09 01:31:31;;;;;;;8.00;3.40;;;;;;;5.29;100.00;96636.16;1034769;28;20010;-69
2022/10/09 01:32:02;;;;;;;6.72;2.90;;;;;;;5.31;100.00;96639.34;1026686;28;20257;-70
2022/10/09 01:32:37;;;;;;;5.50;3.42;;;;;;;5.30;100.00;96639.53;1023074;29;20322;-68
2022/10/09 01:33:07;;;;;;;10.23;3.20;;;;;;;5.31;100.00;96641.16;1023238;29;20288;-71
2022/10/09 01:33:37;;;;;;;5.57;3.13;;;;;;;5.31;100.00;96638.56;1031171;28;20261;-70
2022/10/09 01:34:08;;;;;;;6.50;3.50;;;;;;;5.30;100.00;96635.16;1027080;28;20022;-69
2022/10/09 01:34:38;;;;;;;4.80;2.92;;;;;;;5.31;100.00;96639.34;1031135;28;20015;-70
2022/10/09 01:35:10;;;;;;;9.30;4.05;;;;;;;5.28;100.00;96634.56;1035083;28;20094;-69
2022/10/09 01:35:40;;;;;;;6.32;3.60;;;;;;;5.29;100.00;96638.75;1034485;28;20102;-69
2022/10/09 01:36:11;;;;;;;4.80;2.90;;;;;;;5.26;100.00;96626.16;1031274;28;20257;-69
2022/10/09 01:36:42;;;;;;;5.18;2.88;;;;;;;5.29;100.00;96638.75;1027251;28;20022;-70
2022/10/09 01:37:13;;;;;;;8.30;3.10;;;;;;;5.28;100.00;96631.94;1023228;29;20027;-69
2022/10/09 01:37:44;;;;;;;7.05;3.10;;;;;;;5.28;100.00;96638.97;1031097;28;20190;-69
2022/10/09 01:38:14;;;;;;;7.13;3.35;;;;;;;5.26;100.00;96627.94;1019420;29;20027;-70
2022/10/09 01:38:45;;;;;;;8.30;3.30;;;;;;;5.28;100.00;96637.16;1027211;28;20261;-69
2022/10/09 01:39:18;;;;;;;5.55;2.90;;;;;;;5.27;100.00;96632.97;1026798;28;20025;-70
2022/10/09 01:39:48;;;;;;;7.47;4.00;;;;;;;5.26;100.00;96630.56;1023329;29;20015;-70
2022/10/09 01:40:19;;;;;;;9.27;2.78;;;;;;;5.26;100.00;96633.16;1023064;29;20267;-69
2022/10/09 01:40:49;;;;;;;9.43;3.50;;;;;;;5.24;100.00;96630.78;1023059;29;20020;-69
2022/10/09 01:41:20;;;;;;;5.63;2.85;;;;;;;5.26;100.00;96636.56;1019243;29;20020;-70
2022/10/09 01:41:51;;;;;;;3.90;2.75;;;;;;;5.25;100.00;96632.38;1023221;29;20023;-69
2022/10/09 01:42:25;;;;;;;10.05;3.42;;;;;;;5.24;100.00;96630.78;1023374;28;20610;-70
2022/10/09 01:42:55;;;;;;;3.97;2.88;;;;;;;5.24;100.00;96629.97;1035092;28;20114;-69
2022/10/09 01:43:26;;;;;;;4.07;2.55;;;;;;;5.24;100.00;96633.38;1034502;28;20767;-69
2022/10/09 01:43:56;;;;;;;6.63;3.25;;;;;;;5.24;100.00;96625.56;1035366;28;20416;-69
2022/10/09 01:44:30;;;;;;;6.10;3.20;;;;;;;5.24;100.00;96622.19;1035169;28;20021;-69
2022/10/09 01:45:04;;;;;;;5.80;2.85;;;;;;;5.24;100.00;96627.38;1027367;28;20022;-69
2022/10/09 01:45:39;;;;;;;5.78;2.80;;;;;;;5.22;100.00;96624.97;1030259;28;20788;-68
2022/10/09 01:46:34;;;;;;;8.77;3.10;;;;;;;5.19;100.00;96618.38;1027136;28;20031;-69
2022/10/09 01:47:04;;;;;;;7.75;2.83;;;;;;;5.24;100.00;96625.56;1035393;28;20265;-70
2022/10/09 01:47:37;;;;;;;4.93;2.72;;;;;;;5.24;100.00;96630.78;1026829;28;20274;-69
2022/10/09 01:48:10;;;;;;;5.93;3.00;;;;;;;5.24;100.00;96624.78;1031231;28;20266;-70
2022/10/09 01:48:40;;;;;;;4.25;2.78;;;;;;;5.23;100.00;96625.75;1030989;28;20026;-70
2022/10/09 01:49:24;;;;;;;6.78;3.15;;;;;;;5.22;100.00;96626.78;1027987;28;20836;-70
2022/10/09 01:50:21;;;;;;;4.90;2.45;;;;;;;5.23;100.00;96623.16;1030880;28;20484;-69
2022/10/09 01:50:56;;;;;;;4.28;3.00;;;;;;;5.19;100.00;96623.56;1031954;28;20312;-69
2022/10/09 01:51:34;;;;;;;4.63;2.90;;;;;;;5.20;100.00;96619.97;1034870;28;20261;-69
2022/10/09 01:52:13;;;;;;;5.63;2.78;;;;;;;5.20;100.00;96619.19;1031196;28;20270;-69
2022/10/09 01:53:00;;;;;;;8.68;3.35;;;;;;;5.21;100.00;96620.78;1031093;28;20261;-69
2022/10/09 01:53:30;;;;;;;4.43;2.08;;;;;;;5.14;100.00;96607.00;1023364;29;20282;-70
2022/10/09 01:54:01;;;;;;;5.95;2.70;;;;;;;5.22;100.00;96624.16;1030274;28;20268;-69
2022/10/09 01:54:56;;;;;;;9.45;2.75;;;;;;;5.19;100.00;96613.16;1024087;28;20027;-69
2022/10/09 01:55:43;;;;;;;3.92;2.33;;;;;;;5.20;100.00;96616.59;1030641;28;20433;-70
2022/10/09 01:56:14;;;;;;;4.50;2.75;;;;;;;5.20;100.00;96613.97;1028587;28;20277;-68
2022/10/09 01:56:45;;;;;;;3.80;2.67;;;;;;;5.18;100.00;96615.97;1027140;28;20358;-69
2022/10/09 01:57:18;;;;;;;7.10;3.47;;;;;;;5.19;100.00;96612.38;1027040;28;20677;-69
2022/10/09 01:58:19;;;;;;;6.60;3.55;;;;;;;5.19;100.00;96617.56;1027014;28;20019;-69
2022/10/09 01:58:54;;;;;;;4.70;2.90;;;;;;;5.18;100.00;96616.78;1029172;28;20276;-69
2022/10/09 01:59:24;;;;;;;7.07;3.42;;;;;;;5.16;100.00;96613.59;1027748;28;20070;-68
2022/10/09 01:59:55;;;;;;;6.35;3.00;;;;;;;5.18;100.00;96615.97;1031032;28;20815;-69
2022/10/09 02:00:26;;;;;;;6.03;3.20;;;;;;;5.14;100.00;96609.59;1027338;28;20029;-68
2022/10/09 02:01:10;;;;;;;5.70;3.05;;;;;;;5.17;100.00;96609.19;1031087;28;20077;-70
2022/10/09 02:01:41;;;;;;;5.85;3.25;;;;;;;5.19;100.00;96617.56;1030360;28;20026;-69
2022/10/09 02:02:11;;;;;;;7.38;2.97;;;;;;;5.19;100.00;96613.16;1018885;29;21228;-69
2022/10/09 02:02:42;;;;;;;4.82;3.60;;;;;;;5.19;100.00;96610.56;1015178;29;20039;-69
2022/10/09 02:03:13;;;;;;;11.68;3.97;;;;;;;5.20;100.00;96613.97;1023354;29;20475;-70
2022/10/09 02:03:45;;;;;;;6.18;3.00;;;;;;;5.18;100.00;96605.56;1022568;29;20086;-69
2022/10/09 02:04:16;;;;;;;8.77;3.28;;;;;;;5.21;100.00;96612.97;1027054;28;20677;-69
2022/10/09 02:04:46;;;;;;;7.70;3.30;;;;;;;5.15;100.00;96604.19;1027112;28;20262;-69
2022/10/09 02:05:20;;;;;;;7.25;3.10;;;;;;;5.20;100.00;96613.97;1034850;28;20029;-69
2022/10/09 02:05:50;;;;;;;6.13;3.15;;;;;;;5.19;100.00;96609.78;1023279;29;20117;-70
2022/10/09 02:06:21;;;;;;;5.47;2.70;;;;;;;5.19;100.00;96610.56;1023002;29;20278;-69
2022/10/09 02:06:51;;;;;;;13.65;3.35;;;;;;;5.16;100.00;96602.38;1019619;29;20032;-70
2022/10/09 02:07:22;;;;;;;10.40;3.70;;;;;;;5.18;100.00;96611.56;1031259;28;20041;-70
2022/10/09 02:07:52;;;;;;;8.65;2.80;;;;;;;5.20;100.00;96614.78;1023050;29;20062;-68
2022/10/09 02:08:23;;;;;;;6.18;2.83;;;;;;;5.20;100.00;96611.38;1019114;29;20682;-70
2022/10/09 02:08:56;;;;;;;5.90;3.17;;;;;;;5.20;100.00;96606.97;1019037;29;20044;-68
2022/10/09 02:09:27;;;;;;;5.43;3.58;;;;;;;5.21;100.00;96605.16;1023637;28;20038;-69
2022/10/09 02:09:58;;;;;;;7.40;3.28;;;;;;;5.20;100.00;96613.97;1027804;28;20308;-70
2022/10/09 02:10:29;;;;;;;7.47;3.20;;;;;;;5.22;100.00;96605.97;1033438;28;20041;-69
2022/10/09 02:11:02;;;;;;;7.80;3.17;;;;;;;5.19;100.00;96607.97;1031228;28;20258;-70
2022/10/09 02:11:32;;;;;;;9.27;3.42;;;;;;;5.13;100.00;96592.38;1031037;28;20068;-69
2022/10/09 02:12:05;;;;;;;7.82;3.25;;;;;;;5.19;100.00;96601.97;1022969;29;20278;-70
2022/10/09 02:12:38;;;;;;;4.70;3.13;;;;;;;5.18;100.00;96608.97;1019155;29;20090;-69
2022/10/09 02:13:08;;;;;;;7.82;2.92;;;;;;;5.16;100.00;96602.38;1019222;29;20286;-69
2022/10/09 02:13:39;;;;;;;6.57;3.38;;;;;;;5.16;100.00;96603.19;1022924;29;20343;-69
2022/10/09 02:14:09;;;;;;;3.75;2.38;;;;;;;5.17;100.00;96604.00;1023432;28;20038;-69
2022/10/09 02:14:40;;;;;;;5.72;2.92;;;;;;;5.14;100.00;96605.19;1022849;28;20042;-69
2022/10/09 02:15:10;;;;;;;8.07;3.42;;;;;;;5.11;100.00;96602.22;1015444;29;20431;-69
2022/10/09 02:15:50;;;;;;;7.85;3.75;;;;;;;5.15;100.00;96601.59;1018365;29;20027;-69
2022/10/09 02:16:34;;;;;;;7.45;3.10;;;;;;;5.14;100.00;96599.19;1018990;29;20160;-69
2022/10/09 02:17:22;;;;;;;6.28;2.92;;;;;;;5.12;100.00;96602.00;1025911;28;20065;-69
2022/10/09 02:17:53;;;;;;;4.47;2.95;;;;;;;5.14;100.00;96607.00;1020333;29;20268;-69
2022/10/09 02:18:36;;;;;;;7.60;3.45;;;;;;;5.12;100.00;96601.19;1022997;29;20833;-69
2022/10/09 02:19:25;;;;;;;6.75;3.05;;;;;;;5.11;100.00;96604.81;1015068;29;20020;-69
2022/10/09 02:19:57;;;;;;;5.38;2.60;;;;;;;5.09;100.00;96606.81;1023140;28;20324;-70
2022/10/09 02:20:32;;;;;;;6.03;2.78;;;;;;;5.10;100.00;96608.44;1020421;29;21063;-69
2022/10/09 02:21:07;;;;;;;8.38;2.97;;;;;;;5.09;100.00;96601.59;1023033;28;20270;-69
2022/10/09 02:21:50;;;;;;;8.93;3.28;;;;;;;5.06;100.00;96597.59;1030910;28;20272;-69
2022/10/09 02:22:23;;;;;;;4.60;2.70;;;;;;;5.08;100.00;96600.00;1022985;29;20660;-70
2022/10/09 02:22:53;;;;;;;6.95;3.05;;;;;;;5.06;100.00;96599.41;1026813;28;20267;-69
2022/10/09 02:23:24;;;;;;;7.80;2.38;;;;;;;5.06;100.00;96599.41;1027022;28;20270;-69
2022/10/09 02:23:54;;;;;;;9.27;2.50;;;;;;;5.03;100.00;96590.25;1026838;28;20027;-69
2022/10/09 02:24:25;;;;;;;5.45;2.95;;;;;;;5.07;100.00;96601.03;1031091;28;20022;-69
2022/10/09 02:24:56;;;;;;;5.68;3.25;;;;;;;5.06;100.00;96591.59;1027005;28;20022;-70
2022/10/09 02:25:27;;;;;;;4.85;2.60;;;;;;;5.03;100.00;96592.84;1026278;28;20022;-70
2022/10/09 02:25:57;;;;;;;8.40;3.60;;;;;;;5.02;100.00;96600.84;1023199;28;20265;-70
2022/10/09 02:26:28;;;;;;;10.15;2.85;;;;;;;5.00;100.00;96587.22;1026111;28;20115;-69
2022/10/09 02:26:58;;;;;;;12.88;3.33;;;;;;;5.01;100.00;96591.44;1028198;28;20041;-68
2022/10/09 02:27:29;;;;;;;4.60;2.63;;;;;;;5.03;100.00;96598.03;1032491;28;20021;-69
2022/10/09 02:28:00;;;;;;;7.28;2.63;;;;;;;5.04;100.00;96594.44;1026592;28;20380;-70
2022/10/09 02:28:30;;;;;;;5.85;3.10;;;;;;;5.03;100.00;96594.63;1026904;28;20077;-68
2022/10/09 02:29:01;;;;;;;4.80;2.92;;;;;;;5.03;100.00;96587.66;1026561;28;20284;-69
2022/10/09 02:29:31;;;;;;;6.43;3.00;;;;;;;5.04;100.00;96597.03;1018744;29;20031;-69
2022/10/09 02:30:02;;;;;;;4.28;2.70;;;;;;;5.02;100.00;96595.63;1018816;29;20499;-69
2022/10/09 02:30:57;;;;;;;4.53;2.67;;;;;;;5.06;100.00;96591.59;1029991;28;20522;-69
2022/10/09 02:31:29;;;;;;;4.65;2.80;;;;;;;5.03;100.00;96597.22;1030650;28;20353;-69
2022/10/09 02:31:59;;;;;;;5.13;3.20;;;;;;;5.02;100.00;96588.63;1034607;28;20376;-69
2022/10/09 02:32:30;;;;;;;4.80;2.60;;;;;;;5.04;100.00;96594.44;1038747;28;20315;-69
2022/10/09 02:33:00;;;;;;;7.47;3.30;;;;;;;5.06;100.00;96602.00;1030656;28;20069;-70
2022/10/09 02:33:32;;;;;;;4.70;2.80;;;;;;;5.05;100.00;96590.81;1022602;29;20031;-69
2022/10/09 02:34:07;;;;;;;9.15;3.22;;;;;;;5.00;100.00;96588.06;1024006;28;20027;-69
2022/10/09 02:34:37;;;;;;;5.40;2.65;;;;;;;5.04;100.00;96596.25;1031827;28;20846;-68
2022/10/09 02:35:08;;;;;;;5.68;3.13;;;;;;;5.03;100.00;96594.63;1034859;28;20352;-68
2022/10/09 02:35:38;;;;;;;5.30;2.63;;;;;;;5.03;100.00;96594.63;1037021;28;20025;-67
2022/10/09 02:36:09;;;;;;;5.40;3.00;;;;;;;5.04;100.00;96588.44;1038867;28;20018;-69
2022/10/09 02:36:39;;;;;;;4.47;2.72;;;;;;;5.03;100.00;96592.84;1038982;28;20029;-69
2022/10/09 02:37:10;;;;;;;4.20;2.95;;;;;;;5.07;100.00;96593.22;1038838;28;20476;-69
2022/10/09 02:37:40;;;;;;;5.38;2.88;;;;;;;5.05;100.00;96598.63;1030462;28;20023;-69
2022/10/09 02:38:11;;;;;;;8.93;3.30;;;;;;;5.05;100.00;96584.81;1026799;28;20035;-69
2022/10/09 02:38:41;;;;;;;4.18;3.03;;;;;;;5.05;100.00;96590.03;1026777;28;20023;-69
2022/10/09 02:39:12;;;;;;;6.75;2.97;;;;;;;4.98;100.00;96579.66;1026495;28;20038;-68
2022/10/09 02:39:42;;;;;;;4.22;2.90;;;;;;;5.01;100.00;96588.84;1022834;28;20058;-70
2022/10/09 02:40:13;;;;;;;5.75;2.58;;;;;;;5.03;100.00;96586.81;1018791;29;20035;-68